createdAt,value
2019-04-05T00:01:09.579Z,99145.77
2019-04-05T00:03:36.531Z,99153.32
2019-04-05T00:06:03.701Z,99152.95
2019-04-05T00:08:30.996Z,99143.24
2019-04-05T00:11:00.137Z,99145.16
2019-04-05T00:13:27.078Z,99144.48
2019-04-05T00:15:54.071Z,99138.20
2019-04-05T00:18:21.168Z,99135.23
2019-04-05T00:20:48.128Z,99141.49
2019-04-05T00:23:15.118Z,99135.15
2019-04-05T00:25:42.068Z,99132.59
2019-04-05T00:28:09.007Z,99130.30
2019-04-05T00:30:36.062Z,99125.66
2019-04-05T00:33:03.219Z,99124.16
2019-04-05T00:35:30.185Z,99130.37
2019-04-05T00:37:57.195Z,99127.23
2019-04-05T00:40:24.133Z,99136.96
2019-04-05T00:42:51.139Z,99144.14
2019-04-05T00:45:27.549Z,99144.10
2019-04-05T00:47:47.036Z,99159.28
2019-04-05T00:50:14.257Z,99159.57
2019-04-05T00:52:41.273Z,99161.96
2019-04-05T00:55:08.824Z,99171.16
2019-04-05T00:57:35.989Z,99168.28
2019-04-05T01:00:04.366Z,99163.00
2019-04-05T01:02:32.932Z,99161.66
2019-04-05T01:04:59.891Z,99166.66
2019-04-05T01:07:26.868Z,99168.86
2019-04-05T01:09:54.030Z,99167.95
2019-04-05T01:12:22.132Z,99166.15
2019-04-05T01:14:49.137Z,99161.98
2019-04-05T01:17:24.756Z,99167.90
2019-04-05T01:19:47.260Z,99162.84
2019-04-05T01:22:15.259Z,99162.92
2019-04-05T01:24:43.476Z,99161.83
2019-04-05T01:27:12.231Z,99160.80
2019-04-05T01:29:39.202Z,99163.50
2019-04-05T01:32:06.152Z,99166.59
2019-04-05T01:34:33.110Z,99159.94
2019-04-05T01:37:00.193Z,99174.44
2019-04-05T01:39:27.168Z,99174.58
2019-04-05T01:41:54.515Z,99168.09
2019-04-05T01:44:23.454Z,99167.48
2019-04-05T01:46:50.392Z,99163.17
2019-04-05T01:49:18.745Z,99159.66
2019-04-05T01:51:45.803Z,99152.86
2019-04-05T01:54:12.762Z,99148.42
2019-04-05T01:56:39.736Z,99145.38
2019-04-05T01:59:06.787Z,99144.17
2019-04-05T02:01:33.756Z,99144.61
2019-04-05T02:04:00.706Z,99141.04
2019-04-05T02:06:27.830Z,99147.07
2019-04-05T02:08:54.777Z,99144.50
2019-04-05T02:11:21.940Z,99150.78
2019-04-05T02:13:48.923Z,99148.09
2019-04-05T02:16:15.889Z,99144.90
2019-04-05T02:18:44.870Z,99151.10
2019-04-05T02:21:11.838Z,99149.95
2019-04-05T02:23:40.130Z,99155.02
2019-04-05T02:26:07.075Z,99149.64
2019-04-05T02:28:34.063Z,99146.97
2019-04-05T02:31:01.054Z,99153.20
2019-04-05T02:33:28.070Z,99143.98
2019-04-05T02:35:55.031Z,99144.27
2019-04-05T02:38:21.988Z,99143.75
2019-04-05T02:40:50.731Z,99146.61
2019-04-05T02:43:20.222Z,99148.70
2019-04-05T02:45:49.820Z,99151.56
2019-04-05T02:48:18.376Z,99156.40
2019-04-05T02:50:49.697Z,99163.44
2019-04-05T02:53:18.580Z,99172.75
2019-04-05T02:55:46.864Z,99177.91
2019-04-05T02:58:14.343Z,99174.86
2019-04-05T03:00:44.991Z,99171.52
2019-04-05T03:03:13.697Z,99173.02
2019-04-05T03:05:41.278Z,99173.64
2019-04-05T03:08:08.532Z,99172.02
2019-04-05T03:11:04.630Z,99177.37
2019-04-05T03:13:36.106Z,99176.70
2019-04-05T03:16:07.984Z,99166.34
2019-04-05T03:18:38.956Z,99162.94
2019-04-05T03:21:10.565Z,99159.97
2019-04-05T03:23:41.313Z,99158.89
2019-04-05T03:26:11.740Z,99160.70
2019-04-05T03:28:40.679Z,99160.98
2019-04-05T03:31:08.633Z,99171.65
2019-04-05T03:33:36.330Z,99181.94
2019-04-05T03:36:03.577Z,99191.38
2019-04-05T03:38:31.059Z,99194.00
2019-04-05T03:40:58.139Z,99196.21
2019-04-05T03:43:25.289Z,99202.13
2019-04-05T03:45:52.670Z,99208.46
2019-04-05T03:48:21.888Z,99215.14
2019-04-05T03:50:48.840Z,99219.64
2019-04-05T03:53:15.797Z,99218.95
2019-04-05T03:55:42.766Z,99216.32
2019-04-05T03:58:10.377Z,99220.89
2019-04-05T04:00:37.972Z,99213.84
2019-04-05T04:03:05.492Z,99216.84
2019-04-05T04:05:33.206Z,99201.29
2019-04-05T04:08:00.381Z,99206.28
2019-04-05T04:10:27.785Z,99201.68
2019-04-05T04:12:54.945Z,99193.82
2019-04-05T04:15:23.754Z,99187.57
2019-04-05T04:17:51.297Z,99184.06
2019-04-05T04:20:43.709Z,99188.42
2019-04-05T04:23:11.900Z,99182.47
2019-04-05T04:25:39.743Z,99178.06
2019-04-05T04:28:06.788Z,99171.10
2019-04-05T04:30:35.413Z,99167.32
2019-04-05T04:33:02.699Z,99164.19
2019-04-05T04:35:30.642Z,99161.08
2019-04-05T04:37:58.416Z,99164.76
2019-04-05T04:40:25.757Z,99168.10
2019-04-05T04:42:52.944Z,99173.00
2019-04-05T04:45:20.020Z,99175.02
2019-04-05T04:47:47.525Z,99172.16
2019-04-05T04:50:15.300Z,99171.99
2019-04-05T04:52:44.019Z,99178.27
2019-04-05T04:55:11.474Z,99175.09
2019-04-05T04:57:38.484Z,99182.41
2019-04-05T05:00:09.712Z,99188.81
2019-04-05T05:02:36.728Z,99198.30
2019-04-05T05:05:05.548Z,99201.45
2019-04-05T05:07:32.959Z,99195.80
2019-04-05T05:10:02.997Z,99200.57
2019-04-05T05:12:29.039Z,99208.20
2019-04-05T05:14:56.103Z,99205.63
2019-04-05T05:17:24.706Z,99209.41
2019-04-05T05:19:52.266Z,99199.92
2019-04-05T05:22:20.440Z,99197.12
2019-04-05T05:24:47.409Z,99202.25
2019-04-05T05:27:14.575Z,99203.04
2019-04-05T05:29:44.113Z,99194.84
2019-04-05T05:32:24.293Z,99195.77
2019-04-05T05:42:12.087Z,99203.48
2019-04-05T05:44:39.253Z,99209.43
2019-04-05T05:47:06.342Z,99214.42
2019-04-05T05:49:34.774Z,99216.11
2019-04-05T05:52:02.494Z,99221.54
2019-04-05T05:54:31.331Z,99222.19
2019-04-05T05:56:58.525Z,99221.00
2019-04-05T05:59:29.669Z,99219.25
2019-04-05T06:01:54.932Z,99223.37
2019-04-05T06:04:23.031Z,99216.98
2019-04-05T06:06:50.089Z,99217.02
2019-04-05T06:09:17.114Z,99220.66
2019-04-05T06:11:44.328Z,99222.03
2019-04-05T06:14:12.616Z,99229.24
2019-04-05T06:16:46.186Z,99228.33
2019-04-05T06:19:08.621Z,99228.75
2019-04-05T06:21:35.653Z,99224.27
2019-04-05T06:24:05.227Z,99227.20
2019-04-05T06:26:31.930Z,99228.81
2019-04-05T06:28:59.048Z,99231.14
2019-04-05T06:31:26.063Z,99232.11
2019-04-05T06:33:53.119Z,99235.98
2019-04-05T06:36:20.151Z,99235.31
2019-04-05T06:38:47.300Z,99240.71
2019-04-05T06:41:14.382Z,99240.67
2019-04-05T06:43:41.455Z,99236.07
2019-04-05T06:46:08.582Z,99230.59
2019-04-05T06:48:35.873Z,99231.59
2019-04-05T06:51:10.105Z,99229.43
2019-04-05T06:53:37.193Z,99225.17
2019-04-05T06:56:04.372Z,99226.41
2019-04-05T06:58:31.505Z,99222.90
2019-04-05T07:00:58.717Z,99223.14
2019-04-05T07:03:27.204Z,99216.53
2019-04-05T07:05:55.753Z,99217.58
2019-04-05T07:08:23.086Z,99220.03
2019-04-05T07:10:50.239Z,99217.88
2019-04-05T07:13:17.277Z,99210.11
2019-04-05T07:15:44.336Z,99216.84
2019-04-05T07:18:11.702Z,99216.09
2019-04-05T07:20:39.232Z,99216.88
2019-04-05T07:23:08.874Z,99217.24
2019-04-05T07:25:36.463Z,99218.72
2019-04-05T07:28:03.815Z,99213.40
2019-04-05T07:30:32.727Z,99217.11
2019-04-05T07:33:00.026Z,99216.90
2019-04-05T07:35:33.733Z,99219.31
2019-04-05T07:37:57.380Z,99226.78
2019-04-05T07:40:25.690Z,99219.31
2019-04-05T07:42:52.679Z,99219.00
2019-04-05T07:45:19.911Z,99221.24
2019-04-05T07:47:47.136Z,99220.55
2019-04-05T07:50:14.345Z,99228.06
2019-04-05T07:52:41.427Z,99232.80
2019-04-05T07:55:09.077Z,99230.95
2019-04-05T07:57:37.232Z,99223.16
2019-04-05T08:00:06.578Z,99230.05
2019-04-05T08:02:33.838Z,99219.02
2019-04-05T08:05:02.789Z,99220.41
2019-04-05T08:07:36.906Z,99215.59
2019-04-05T08:10:12.201Z,99221.23
2019-04-05T08:12:41.681Z,99214.67
2019-04-05T08:15:10.676Z,99219.57
2019-04-05T08:17:37.861Z,99217.80
2019-04-05T08:20:07.892Z,99216.15
2019-04-05T08:22:35.330Z,99221.84
2019-04-05T08:25:02.601Z,99216.73
2019-04-05T08:27:30.838Z,99216.23
2019-04-05T08:29:58.429Z,99216.20
2019-04-05T08:32:27.583Z,99218.64
2019-04-05T08:34:55.724Z,99221.66
2019-04-05T08:37:24.212Z,99227.78
2019-04-05T08:39:51.814Z,99227.41
2019-04-05T08:42:19.059Z,99227.09
2019-04-05T08:44:46.093Z,99220.05
2019-04-05T08:47:13.148Z,99222.77
2019-04-05T08:49:40.251Z,99231.02
2019-04-05T08:52:07.407Z,99227.95
2019-04-05T08:54:36.766Z,99230.56
2019-04-05T08:57:04.373Z,99237.30
2019-04-05T08:59:31.530Z,99237.75
2019-04-05T09:01:58.678Z,99243.45
2019-04-05T09:04:25.783Z,99235.27
2019-04-05T09:06:53.134Z,99233.05
2019-04-05T09:13:10.144Z,99234.88
2019-04-05T09:15:38.922Z,99238.59
2019-04-05T09:18:06.032Z,99239.50
2019-04-05T09:20:33.146Z,99237.16
2019-04-05T09:23:01.444Z,99237.51
2019-04-05T09:25:29.030Z,99237.06
2019-04-05T09:27:57.963Z,99231.88
2019-04-05T09:30:25.041Z,99241.59
2019-04-05T09:32:52.326Z,99237.88
2019-04-05T09:35:19.528Z,99240.88
2019-04-05T09:37:46.862Z,99233.38
2019-04-05T09:40:14.241Z,99235.03
2019-04-05T09:42:43.195Z,99234.78
2019-04-05T09:45:12.093Z,99232.28
2019-04-05T09:47:39.121Z,99237.41
2019-04-05T09:50:06.988Z,99236.66
2019-04-05T09:52:34.048Z,99237.76
2019-04-05T09:55:01.929Z,99231.50
2019-04-05T09:57:29.281Z,99228.30
2019-04-05T09:59:56.457Z,99230.55
2019-04-05T10:02:23.505Z,99231.17
2019-04-05T10:04:50.708Z,99233.49
2019-04-05T10:07:19.556Z,99234.32
2019-04-05T10:09:47.996Z,99231.16
2019-04-05T10:12:16.039Z,99231.52
2019-04-05T10:14:43.143Z,99230.90
2019-04-05T10:17:11.303Z,99238.20
2019-04-05T10:19:49.245Z,99236.06
2019-04-05T10:22:10.636Z,99240.33
2019-04-05T10:24:37.688Z,99238.61
2019-04-05T10:27:04.714Z,99231.49
2019-04-05T10:29:31.935Z,99227.73
2019-04-05T10:32:00.147Z,99227.13
2019-04-05T10:34:27.174Z,99220.56
2019-04-05T10:36:54.209Z,99217.92
2019-04-05T10:39:21.273Z,99210.53
2019-04-05T10:41:48.625Z,99208.97
2019-04-05T10:44:16.188Z,99209.42
2019-04-05T10:46:43.258Z,99208.84
2019-04-05T10:49:11.332Z,99212.66
2019-04-05T10:51:38.401Z,99210.83
2019-04-05T10:54:09.404Z,99205.44
2019-04-05T10:56:39.354Z,99206.83
2019-04-05T10:59:13.249Z,99205.56
2019-04-05T11:01:41.095Z,99204.25
2019-04-05T11:04:16.872Z,99208.48
2019-04-05T11:06:45.710Z,99202.35
2019-04-05T11:09:20.233Z,99203.72
2019-04-05T11:11:47.290Z,99203.42
2019-04-05T11:14:14.485Z,99201.16
2019-04-05T11:16:42.727Z,99194.08
2019-04-05T11:19:11.516Z,99195.15
2019-04-05T11:21:40.433Z,99187.92
2019-04-05T11:24:10.662Z,99189.91
2019-04-05T11:26:38.126Z,99176.92
2019-04-05T11:29:05.269Z,99178.64
2019-04-05T11:31:32.339Z,99179.82
2019-04-05T11:34:00.758Z,99175.48
2019-04-05T11:36:36.582Z,99179.88
2019-04-05T11:39:06.669Z,99184.89
2019-04-05T11:41:46.349Z,99186.12
2019-04-05T11:44:15.767Z,99181.42
2019-04-05T11:46:49.146Z,99184.10
2019-04-05T11:49:16.904Z,99183.11
2019-04-05T11:51:45.107Z,99177.64
2019-04-05T11:54:13.855Z,99173.22
2019-04-05T11:56:41.192Z,99182.11
2019-04-05T11:59:15.557Z,99173.16
2019-04-05T12:02:16.969Z,99175.84
2019-04-05T12:04:47.842Z,99177.47
2019-04-05T12:07:14.895Z,99179.25
2019-04-05T12:09:42.739Z,99168.09
2019-04-05T12:12:09.815Z,99166.86
2019-04-05T12:14:38.680Z,99165.95
2019-04-05T12:17:06.222Z,99162.41
2019-04-05T12:19:33.626Z,99162.11
2019-04-05T12:22:04.582Z,99153.41
2019-04-05T12:24:47.762Z,99156.32
2019-04-05T12:27:36.626Z,99164.98
2019-04-05T12:30:04.594Z,99161.01
2019-04-05T12:32:41.085Z,99162.23
2019-04-05T12:35:04.918Z,99162.28
2019-04-05T12:37:32.206Z,99162.53
2019-04-05T12:40:00.748Z,99158.25
2019-04-05T12:42:27.873Z,99161.81
2019-04-05T12:44:57.415Z,99151.08
2019-04-05T12:47:27.405Z,99151.61
2019-04-05T12:49:57.096Z,99151.23
2019-04-05T12:52:28.960Z,99147.98
2019-04-05T12:54:55.998Z,99145.84
2019-04-05T12:57:23.245Z,99142.75
2019-04-05T12:59:55.606Z,99143.94
2019-04-05T13:02:33.263Z,99136.64
2019-04-05T13:04:53.732Z,99141.24
2019-04-05T13:07:22.799Z,99140.91
2019-04-05T13:09:53.843Z,99138.30
2019-04-05T13:12:26.304Z,99138.53
2019-04-05T13:14:59.706Z,99143.44
2019-04-05T13:17:24.019Z,99145.39
2019-04-05T13:20:00.879Z,99143.00
2019-04-05T13:22:33.063Z,99145.59
2019-04-05T13:25:02.562Z,99141.92
2019-04-05T13:27:30.865Z,99146.31
2019-04-05T13:29:57.937Z,99142.03
2019-04-05T13:32:27.746Z,99135.50
2019-04-05T13:34:56.458Z,99137.40
2019-04-05T13:37:28.541Z,99133.78
2019-04-05T13:40:00.026Z,99131.67
2019-04-05T13:42:31.258Z,99126.94
2019-04-05T13:45:01.783Z,99125.05
2019-04-05T13:47:32.982Z,99125.86
2019-04-05T13:49:59.702Z,99125.42
2019-04-05T13:52:28.702Z,99121.44
2019-04-05T13:54:57.493Z,99127.53
2019-04-05T13:57:25.058Z,99123.54
2019-04-05T13:59:52.148Z,99119.14
2019-04-05T14:02:21.662Z,99114.69
2019-04-05T14:04:53.434Z,99119.52
2019-04-05T14:07:25.218Z,99113.67
2019-04-05T14:09:52.364Z,99115.00
2019-04-05T14:12:19.651Z,99113.34
2019-04-05T14:14:51.006Z,99109.59
2019-04-05T14:17:17.022Z,99101.59
2019-04-05T14:19:46.733Z,99107.51
2019-04-05T14:22:17.883Z,99102.31
2019-04-05T14:24:45.087Z,99098.81
2019-04-05T14:27:20.557Z,99098.90
2019-04-05T14:29:54.974Z,99097.23
2019-04-05T14:32:55.419Z,99089.77
2019-04-05T14:35:25.321Z,99093.95
2019-04-05T14:37:54.617Z,99097.59
2019-04-05T14:40:22.933Z,99089.58
2019-04-05T14:42:50.003Z,99088.43
2019-04-05T14:45:18.197Z,99084.23
2019-04-05T14:47:45.520Z,99086.58
2019-04-05T14:50:15.947Z,99093.76
2019-04-05T14:52:45.913Z,99089.08
2019-04-05T14:55:14.765Z,99088.55
2019-04-05T14:57:41.805Z,99091.41
2019-04-05T15:00:09.850Z,99089.73
2019-04-05T15:02:37.079Z,99090.89
2019-04-05T15:05:05.987Z,99092.61
2019-04-05T15:07:34.384Z,99093.70
2019-04-05T15:10:27.939Z,99100.88
2019-04-05T15:13:00.270Z,99094.89
2019-04-05T15:15:27.785Z,99092.03
2019-04-05T15:17:56.680Z,99092.64
2019-04-05T15:20:25.858Z,99084.03
2019-04-05T15:22:52.929Z,99090.89
2019-04-05T15:25:21.793Z,99087.68
2019-04-05T15:27:52.569Z,99092.17
2019-04-05T15:30:18.470Z,99090.03
2019-04-05T15:32:45.622Z,99092.20
2019-04-05T15:35:12.957Z,99090.89
2019-04-05T15:37:40.135Z,99089.20
2019-04-05T15:40:09.416Z,99090.31
2019-04-05T15:42:36.572Z,99087.09
2019-04-05T15:45:05.939Z,99088.06
2019-04-05T15:47:34.305Z,99090.89
2019-04-05T15:50:01.452Z,99085.23
2019-04-05T15:52:31.852Z,99081.91
2019-04-05T15:55:06.014Z,99086.06
2019-04-05T15:57:34.288Z,99087.01
2019-04-05T16:00:03.795Z,99086.85
2019-04-05T16:02:33.174Z,99087.69
2019-04-05T16:05:00.675Z,99097.44
2019-04-05T16:07:27.862Z,99092.41
2019-04-05T16:09:55.308Z,99092.55
2019-04-05T16:12:22.477Z,99101.02
2019-04-05T16:14:49.516Z,99096.42
2019-04-05T16:17:16.616Z,99100.55
2019-04-05T16:19:43.652Z,99097.95
2019-04-05T16:22:10.774Z,99106.78
2019-04-05T16:24:37.861Z,99101.36
2019-04-05T16:27:05.032Z,99100.05
2019-04-05T16:29:32.092Z,99107.80
2019-04-05T16:31:59.485Z,99101.58
2019-04-05T16:34:26.500Z,99107.66
2019-04-05T16:36:53.565Z,99108.30
2019-04-05T16:39:20.743Z,99102.95
2019-04-05T16:41:47.840Z,99106.23
2019-04-05T16:44:16.313Z,99104.33
2019-04-05T16:46:43.413Z,99107.84
2019-04-05T16:49:11.727Z,99105.06
2019-04-05T16:51:38.776Z,99102.97
2019-04-05T16:54:05.838Z,99103.34
2019-04-05T16:56:33.104Z,99111.88
2019-04-05T16:59:03.129Z,99112.66
2019-04-05T17:01:30.242Z,99111.34
2019-04-05T17:03:57.598Z,99115.30
2019-04-05T17:06:24.786Z,99120.89
2019-04-05T17:08:52.110Z,99125.23
2019-04-05T17:11:19.181Z,99129.00
2019-04-05T17:13:46.288Z,99125.05
2019-04-05T17:16:13.792Z,99133.16
2019-04-05T17:18:42.909Z,99135.43
2019-04-05T17:21:10.351Z,99133.55
2019-04-05T17:23:38.857Z,99129.20
2019-04-05T17:26:08.996Z,99136.11
2019-04-05T17:28:36.283Z,99138.66
2019-04-05T17:31:03.725Z,99132.13
2019-04-05T17:33:30.753Z,99133.46
2019-04-05T17:36:04.715Z,99132.86
2019-04-05T17:38:32.624Z,99136.59
2019-04-05T17:40:59.815Z,99137.42
2019-04-05T17:43:28.164Z,99129.81
2019-04-05T17:45:57.945Z,99134.54
2019-04-05T17:48:26.335Z,99131.41
2019-04-05T17:50:53.397Z,99128.98
2019-04-05T17:53:20.687Z,99134.73
2019-04-05T17:55:49.158Z,99134.45
2019-04-05T17:58:17.817Z,99141.28
2019-04-05T18:00:47.351Z,99147.33
2019-04-05T18:03:17.257Z,99148.75
2019-04-05T18:05:46.401Z,99151.83
2019-04-05T18:08:13.965Z,99148.63
2019-04-05T18:10:41.130Z,99149.34
2019-04-05T18:13:08.268Z,99145.81
2019-04-05T18:15:35.910Z,99151.59
2019-04-05T18:18:03.078Z,99151.72
2019-04-05T18:20:33.833Z,99152.24
2019-04-05T18:23:00.927Z,99151.97
2019-04-05T18:25:28.150Z,99152.11
2019-04-05T18:27:55.287Z,99158.48
2019-04-05T18:30:24.577Z,99160.15
2019-04-05T18:32:57.479Z,99160.61
2019-04-05T18:35:24.555Z,99153.66
2019-04-05T18:37:52.183Z,99163.33
2019-04-05T18:40:19.272Z,99163.67
2019-04-05T18:42:53.515Z,99165.89
2019-04-05T18:45:20.605Z,99168.75
2019-04-05T18:47:47.905Z,99171.48
2019-04-05T18:50:15.360Z,99171.55
2019-04-05T18:52:42.570Z,99169.55
2019-04-05T18:55:11.131Z,99176.00
2019-04-05T18:57:38.285Z,99175.28
2019-04-05T19:00:05.511Z,99173.52
2019-04-05T19:02:37.084Z,99172.41
2019-04-05T19:05:05.697Z,99176.63
2019-04-05T19:07:33.271Z,99174.68
2019-04-05T19:10:00.407Z,99170.95
2019-04-05T19:12:29.421Z,99171.53
2019-04-05T19:14:57.825Z,99169.77
2019-04-05T19:17:28.896Z,99177.66
2019-04-05T19:19:59.963Z,99173.67
2019-04-05T19:22:31.547Z,99170.72
2019-04-05T19:24:58.708Z,99168.83
2019-04-05T19:27:32.142Z,99170.02
2019-04-05T19:50:09.015Z,99167.80
2019-04-05T19:52:36.134Z,99163.26
2019-04-05T19:55:04.296Z,99167.09
2019-04-05T19:57:31.353Z,99165.84
2019-04-05T20:00:00.449Z,99168.67
2019-04-05T20:02:27.765Z,99170.31
2019-04-05T20:04:56.051Z,99176.92
2019-04-05T20:07:24.330Z,99173.38
2019-04-05T20:09:54.725Z,99170.88
2019-04-05T20:12:21.848Z,99170.28
2019-04-05T20:14:49.081Z,99174.05
2019-04-05T20:17:18.380Z,99175.95
2019-04-05T20:19:49.628Z,99170.03
2019-04-05T20:22:16.943Z,99167.45
2019-04-05T20:24:45.318Z,99171.23
2019-04-05T20:27:16.514Z,99170.28
2019-04-05T20:29:43.788Z,99173.80
2019-04-05T20:32:12.255Z,99173.44
2019-04-05T20:34:39.545Z,99179.70
2019-04-05T20:37:07.759Z,99173.09
2019-04-05T20:39:35.020Z,99175.44
2019-04-05T20:42:02.122Z,99181.09
2019-04-05T20:44:29.398Z,99182.78
2019-04-05T20:46:56.941Z,99174.28
2019-04-05T20:49:24.123Z,99174.48
2019-04-05T20:51:54.046Z,99166.13
2019-04-05T20:54:24.838Z,99166.54
2019-04-05T20:56:50.809Z,99165.74
2019-04-05T20:59:18.021Z,99174.77
2019-04-05T21:01:47.300Z,99171.76
2019-04-05T21:04:16.298Z,99172.41
2019-04-05T21:06:43.528Z,99169.52
2019-04-05T21:09:10.709Z,99171.91
2019-04-05T21:11:38.195Z,99174.63
2019-04-05T21:14:08.156Z,99168.57
2019-04-05T21:16:35.231Z,99170.36
2019-04-05T21:19:04.874Z,99170.65
2019-04-05T21:21:31.390Z,99173.86
2019-04-05T21:24:00.256Z,99171.08
2019-04-05T21:26:28.846Z,99176.86
2019-04-05T21:28:55.945Z,99175.16
2019-04-05T21:31:23.103Z,99183.53
2019-04-05T21:33:50.179Z,99186.16
2019-04-05T21:36:17.253Z,99196.00
2019-04-05T21:38:44.308Z,99184.59
2019-04-05T21:41:13.231Z,99190.88
2019-04-05T21:43:41.490Z,99187.95
2019-04-05T21:46:08.620Z,99193.61
2019-04-05T21:48:35.647Z,99186.30
2019-04-05T21:51:02.853Z,99194.25
2019-04-05T21:53:29.881Z,99187.45
2019-04-05T21:55:57.295Z,99188.95
2019-04-05T21:58:25.966Z,99182.45
2019-04-05T22:00:58.938Z,99189.31
2019-04-05T22:03:26.607Z,99186.23
2019-04-05T22:05:53.643Z,99182.21
2019-04-05T22:08:24.089Z,99187.16
2019-04-05T22:10:51.194Z,99185.27
2019-04-05T22:13:18.273Z,99185.99
2019-04-05T22:15:45.323Z,99186.23
2019-04-05T22:18:12.564Z,99185.99
2019-04-05T22:20:39.624Z,99188.92
2019-04-05T22:23:06.972Z,99191.38
2019-04-05T22:25:34.146Z,99193.87
2019-04-05T22:28:01.180Z,99196.71
2019-04-05T22:30:28.231Z,99196.60
2019-04-05T22:32:55.343Z,99184.36
2019-04-05T22:35:24.189Z,99194.49
2019-04-05T22:37:51.492Z,99187.76
2019-04-05T22:40:18.560Z,99183.30
2019-04-05T22:42:45.661Z,99186.83
2019-04-05T22:45:12.727Z,99185.53
2019-04-05T22:47:39.901Z,99180.45
2019-04-05T22:50:08.834Z,99183.55
2019-04-05T22:52:37.012Z,99184.11
2019-04-05T22:55:11.228Z,99173.64
2019-04-05T22:57:35.152Z,99177.05
2019-04-05T23:00:02.442Z,99176.33
2019-04-05T23:02:34.247Z,99178.92
2019-04-05T23:05:01.819Z,99172.92
2019-04-05T23:07:29.852Z,99172.66
2019-04-05T23:09:57.252Z,99170.08
2019-04-05T23:12:24.376Z,99176.63
2019-04-05T23:14:51.408Z,99170.17
2019-04-05T23:17:18.986Z,99172.93
2019-04-05T23:19:47.761Z,99166.08
2019-04-05T23:22:14.989Z,99170.46
2019-04-05T23:24:42.043Z,99168.20
2019-04-05T23:27:09.186Z,99171.26
2019-04-05T23:29:36.232Z,99170.64
2019-04-05T23:32:03.305Z,99173.47
2019-04-05T23:34:30.344Z,99180.65
2019-04-05T23:36:57.476Z,99173.44
2019-04-05T23:39:24.594Z,99178.75
2019-04-05T23:41:51.641Z,99175.09
2019-04-05T23:44:18.902Z,99169.36
2019-04-05T23:46:45.946Z,99175.91
2019-04-05T23:49:14.132Z,99176.45
2019-04-05T23:51:41.407Z,99181.20
2019-04-05T23:54:08.441Z,99177.03
2019-04-05T23:56:35.482Z,99181.63
2019-04-05T23:59:02.554Z,99180.59
